Time;durP1;ratioP1;P1;durP2;ratioP2;P2;SDS_P1;SDS_P2;PMS_P1;PMS_P2;Temp;Humidity;BMP_temperature;BMP_pressure;BME280_temperature;BME280_humidity;BME280_pressure;Samples;Min_cycle;Max_cycle;Signal;HPM_P1;HPM_P2
2021/08/16 00:01:11;;;;;;;17.32;8.75;;;;;;;17.97;69.76;100638.80;1741240;82;21253;-55
2021/08/16 00:04:18;;;;;;;16.05;8.38;;;;;;;17.95;69.86;100629.02;1775919;79;21771;-55
2021/08/16 00:07:23;;;;;;;17.62;8.90;;;;;;;17.92;69.72;100630.29;1775736;80;21690;-56
2021/08/16 00:10:30;;;;;;;18.60;8.53;;;;;;;17.85;69.75;100626.70;1775460;81;21177;-56
2021/08/16 00:13:37;;;;;;;18.87;8.38;;;;;;;17.77;69.87;100625.00;1767551;80;21208;-55
2021/08/16 00:16:44;;;;;;;13.45;7.53;;;;;;;17.73;70.03;100625.12;1775682;81;21216;-55
2021/08/16 00:19:49;;;;;;;18.23;8.53;;;;;;;17.71;70.08;100615.34;1766087;79;21402;-55
2021/08/16 00:22:55;;;;;;;14.58;8.65;;;;;;;17.69;70.04;100621.62;1765503;80;21339;-54
2021/08/16 00:26:02;;;;;;;13.00;7.92;;;;;;;17.64;70.06;100622.80;1743496;81;21256;-55
2021/08/16 00:29:10;;;;;;;14.98;7.87;;;;;;;17.62;70.19;100630.46;1765770;80;21359;-54
2021/08/16 00:32:17;;;;;;;13.10;7.87;;;;;;;17.62;70.22;100624.41;1765410;80;21185;-55
2021/08/16 00:35:26;;;;;;;13.90;7.97;;;;;;;17.64;70.15;100617.27;1712725;82;21192;-56
2021/08/16 00:38:33;;;;;;;12.73;8.20;;;;;;;17.62;69.91;100613.33;1765134;80;21197;-56
2021/08/16 00:41:39;;;;;;;15.05;8.78;;;;;;;17.57;69.94;100616.41;1765201;80;21185;-55
2021/08/16 00:44:45;;;;;;;13.62;7.85;;;;;;;17.51;70.07;100611.73;1748073;81;21228;-55
2021/08/16 00:47:56;;;;;;;16.00;7.90;;;;;;;17.46;70.19;100611.00;1765738;80;21204;-55
2021/08/16 00:51:02;;;;;;;11.80;7.53;;;;;;;17.40;70.32;100611.84;1765388;80;21166;-56
2021/08/16 00:54:08;;;;;;;13.90;7.85;;;;;;;17.33;70.47;100606.00;1754354;80;21209;-55
2021/08/16 00:57:12;;;;;;;15.30;8.85;;;;;;;17.27;70.72;100610.45;1799064;79;21225;-56
2021/08/16 01:00:20;;;;;;;13.75;7.70;;;;;;;17.25;70.92;100604.83;1766202;80;21166;-56
2021/08/16 01:03:27;;;;;;;12.00;7.58;;;;;;;17.23;71.04;100598.64;1767093;79;21782;-55
2021/08/16 01:06:34;;;;;;;11.03;7.65;;;;;;;17.26;71.03;100596.83;1768814;79;21202;-55
2021/08/16 01:09:41;;;;;;;12.50;7.95;;;;;;;17.26;70.87;100606.00;1766656;80;21229;-55
2021/08/16 01:12:47;;;;;;;12.68;7.78;;;;;;;17.21;70.92;100601.62;1766304;80;21196;-54
2021/08/16 01:16:11;;;;;;;16.07;8.10;;;;;;;17.16;70.99;100598.64;1768803;79;21324;-55
2021/08/16 01:19:17;;;;;;;10.25;7.75;;;;;;;17.13;71.08;100593.55;1766602;80;21217;-55
2021/08/16 01:22:22;;;;;;;12.93;7.97;;;;;;;17.14;71.32;100591.64;1768695;80;21327;-56
2021/08/16 01:25:28;;;;;;;16.12;7.97;;;;;;;17.18;71.23;100595.66;1810025;79;21256;-55
2021/08/16 01:28:34;;;;;;;13.68;8.10;;;;;;;17.19;71.03;100600.98;1775785;80;21896;-56
2021/08/16 01:31:40;;;;;;;13.80;7.95;;;;;;;17.18;70.94;100602.58;1713964;82;21879;-54
2021/08/16 01:34:48;;;;;;;12.75;7.80;;;;;;;17.15;70.94;100601.62;1780973;79;21213;-55
2021/08/16 01:37:53;;;;;;;13.83;8.10;;;;;;;17.14;70.90;100609.63;1787754;80;21813;-54
2021/08/16 01:41:00;;;;;;;14.85;8.13;;;;;;;17.12;70.92;100615.89;1780842;79;21185;-56
2021/08/16 01:44:14;;;;;;;15.20;8.50;;;;;;;17.08;70.81;100609.06;1779226;79;21335;-55
2021/08/16 01:47:17;;;;;;;14.43;7.65;;;;;;;16.98;70.92;100608.09;1778879;80;21205;-55
2021/08/16 01:50:27;;;;;;;15.83;8.65;;;;;;;16.94;71.24;100610.13;1779369;80;21212;-55
2021/08/16 01:53:32;;;;;;;17.30;9.10;;;;;;;16.92;71.53;100609.50;1732576;82;21366;-55
2021/08/16 01:56:40;;;;;;;16.77;9.90;;;;;;;16.89;71.55;100609.89;1775374;79;21206;-56
2021/08/16 01:59:48;;;;;;;15.55;10.58;;;;;;;16.85;71.62;100598.95;1733688;82;21245;-55
2021/08/16 02:02:56;;;;;;;20.72;9.75;;;;;;;16.79;71.70;100607.55;1780917;79;21201;-55
2021/08/16 02:06:03;;;;;;;18.77;8.98;;;;;;;16.78;71.87;100607.75;1773453;79;21367;-56
2021/08/16 02:09:09;;;;;;;15.85;8.55;;;;;;;16.75;71.81;100609.56;1810067;79;21272;-55
2021/08/16 02:12:15;;;;;;;20.05;10.48;;;;;;;16.72;71.84;100613.61;1806844;79;21196;-55
2021/08/16 02:15:20;;;;;;;18.17;9.30;;;;;;;16.70;71.93;100617.66;1770265;79;21722;-56
2021/08/16 02:18:26;;;;;;;17.60;10.95;;;;;;;16.70;72.08;100621.81;1794628;79;21326;-56
2021/08/16 02:21:32;;;;;;;19.25;10.68;;;;;;;16.68;71.97;100626.69;1774322;79;21939;-56
2021/08/16 02:24:37;;;;;;;21.70;11.78;;;;;;;16.66;72.02;100625.52;1791368;79;21367;-55
2021/08/16 02:27:55;;;;;;;17.95;11.73;;;;;;;16.64;71.94;100619.86;1766481;80;21380;-56
2021/08/16 02:31:01;;;;;;;23.83;14.50;;;;;;;16.57;71.97;100628.68;1766597;81;21265;-55
2021/08/16 02:34:08;;;;;;;25.95;14.47;;;;;;;16.53;72.21;100632.91;1775102;79;21876;-56
2021/08/16 02:37:13;;;;;;;24.92;13.28;;;;;;;16.55;72.46;100635.80;1769982;80;21328;-56
2021/08/16 02:40:19;;;;;;;28.15;13.65;;;;;;;16.56;72.27;100626.44;1766501;80;21194;-56
2021/08/16 02:43:28;;;;;;;20.25;12.53;;;;;;;16.55;72.36;100630.27;1766409;80;21221;-55
2021/08/16 02:46:34;;;;;;;25.65;13.50;;;;;;;16.56;72.37;100642.16;1766701;80;21299;-56
2021/08/16 02:49:40;;;;;;;23.22;12.68;;;;;;;16.54;72.37;100636.01;1765093;80;21431;-55
2021/08/16 02:52:46;;;;;;;21.00;12.68;;;;;;;16.53;72.31;100648.11;1737479;81;21185;-56
2021/08/16 02:55:52;;;;;;;24.87;11.83;;;;;;;16.51;72.35;100649.70;1732012;81;21210;-56
2021/08/16 02:58:58;;;;;;;55.03;14.00;;;;;;;16.51;72.57;100646.93;1731134;83;21591;-55
2021/08/16 03:02:05;;;;;;;49.75;13.78;;;;;;;16.50;73.53;100646.63;1731235;83;21208;-55
2021/08/16 03:05:12;;;;;;;38.05;11.88;;;;;;;16.52;74.36;100650.56;1731191;82;21239;-55
2021/08/16 03:08:18;;;;;;;43.98;11.80;;;;;;;16.54;74.54;100645.68;1731099;83;21792;-55
2021/08/16 03:11:26;;;;;;;42.10;12.30;;;;;;;16.57;74.71;100647.48;1732603;80;21193;-55
2021/08/16 03:14:33;;;;;;;57.73;13.40;;;;;;;16.58;74.65;100648.34;1734045;81;21228;-55
2021/08/16 03:17:39;;;;;;;39.80;12.85;;;;;;;16.60;74.57;100653.14;1731559;80;21205;-55
2021/08/16 03:20:47;;;;;;;29.65;11.25;;;;;;;16.62;74.24;100653.79;1731193;83;21193;-55
2021/08/16 03:23:52;;;;;;;82.02;42.50;;;;;;;16.68;73.94;100652.95;1730619;80;21189;-55
2021/08/16 03:26:59;;;;;;;85.75;41.65;;;;;;;16.74;73.59;100645.19;1732914;80;21189;-54
2021/08/16 03:30:05;;;;;;;63.50;31.23;;;;;;;16.74;73.17;100643.30;1748032;81;21400;-54
2021/08/16 03:33:09;;;;;;;49.70;25.12;;;;;;;16.81;73.13;100643.31;1761730;81;21218;-56
2021/08/16 03:36:17;;;;;;;35.70;21.02;;;;;;;16.89;72.54;100634.78;1770821;80;21343;-56
2021/08/16 03:39:22;;;;;;;32.95;17.80;;;;;;;16.94;72.03;100636.39;1770503;80;21430;-56
2021/08/16 03:42:28;;;;;;;25.40;14.28;;;;;;;17.02;71.67;100638.44;1770538;81;21375;-56
2021/08/16 03:45:34;;;;;;;23.02;13.83;;;;;;;17.10;71.28;100638.75;1770526;81;21209;-56
2021/08/16 03:48:43;;;;;;;21.68;13.78;;;;;;;17.16;71.04;100640.14;1770169;81;21379;-56
2021/08/16 03:51:49;;;;;;;22.82;14.53;;;;;;;17.20;70.83;100641.45;1748175;81;21316;-56
2021/08/16 03:54:55;;;;;;;25.68;14.28;;;;;;;17.29;70.86;100651.75;1769943;81;21427;-56
2021/08/16 03:58:02;;;;;;;24.20;13.88;;;;;;;17.38;70.42;100644.41;1769889;81;21166;-56
2021/08/16 04:01:08;;;;;;;35.98;24.02;;;;;;;17.49;70.19;100638.25;1769794;81;21375;-55
2021/08/16 04:04:14;;;;;;;35.45;21.97;;;;;;;17.61;69.73;100644.00;1770279;80;21266;-56
2021/08/16 04:07:22;;;;;;;29.37;16.77;;;;;;;17.70;69.43;100649.09;1770649;81;21218;-57
2021/08/16 04:10:30;;;;;;;27.82;16.73;;;;;;;17.80;69.02;100660.59;1770502;80;21411;-56
2021/08/16 04:13:35;;;;;;;42.78;22.50;;;;;;;17.90;68.47;100665.69;1770472;81;21942;-56
2021/08/16 04:16:42;;;;;;;38.95;21.05;;;;;;;18.00;68.22;100662.47;1770617;81;21391;-55
2021/08/16 04:19:47;;;;;;;43.23;21.90;;;;;;;18.09;68.16;100653.70;1770392;81;21755;-54
2021/08/16 04:22:55;;;;;;;47.45;27.95;;;;;;;18.18;68.24;100666.25;1770454;81;21210;-54
2021/08/16 04:26:02;;;;;;;44.98;28.95;;;;;;;18.30;68.32;100655.34;1768545;80;21328;-55
2021/08/16 04:29:14;;;;;;;32.28;20.15;;;;;;;18.41;67.89;100662.45;1774480;79;21350;-56
2021/08/16 04:32:23;;;;;;;23.87;16.15;;;;;;;18.57;67.56;100665.25;1807812;79;21336;-56
2021/08/16 04:35:28;;;;;;;29.07;15.10;;;;;;;18.66;67.04;100666.72;1811317;79;22003;-57
2021/08/16 04:38:37;;;;;;;20.70;13.18;;;;;;;18.78;66.92;100676.03;1811357;79;21367;-57
2021/08/16 04:41:48;;;;;;;20.35;12.90;;;;;;;18.88;66.70;100675.88;1811673;79;21293;-56
2021/08/16 04:44:55;;;;;;;22.40;13.75;;;;;;;19.01;66.42;100677.16;1811212;79;21860;-55
2021/08/16 04:48:00;;;;;;;26.82;15.53;;;;;;;19.16;66.10;100681.88;1765827;81;21339;-55
2021/08/16 04:51:08;;;;;;;25.85;15.03;;;;;;;19.31;65.80;100684.37;1766486;80;21374;-55
2021/08/16 04:54:14;;;;;;;23.40;14.95;;;;;;;19.46;65.37;100677.08;1768052;80;21249;-56
2021/08/16 04:57:21;;;;;;;23.47;15.23;;;;;;;19.58;64.97;100682.22;1770223;79;21785;-57
2021/08/16 05:00:27;;;;;;;21.40;13.88;;;;;;;19.70;64.79;100682.64;1761545;81;21214;-57
2021/08/16 05:03:32;;;;;;;37.65;14.70;;;;;;;19.84;64.66;100680.58;1761847;81;21375;-54
2021/08/16 05:06:42;;;;;;;21.12;12.85;;;;;;;19.97;64.45;100686.01;1761106;81;21309;-56
2021/08/16 05:09:46;;;;;;;22.42;11.80;;;;;;;20.11;64.08;100677.30;1778139;79;21212;-58
2021/08/16 05:12:55;;;;;;;18.12;10.88;;;;;;;20.26;63.79;100677.83;1799387;79;21212;-58
2021/08/16 05:16:03;;;;;;;19.20;11.12;;;;;;;20.42;63.54;100680.52;1773661;81;21228;-55
2021/08/16 05:19:11;;;;;;;15.88;10.60;;;;;;;20.58;63.40;100685.45;1736579;81;21363;-53
2021/08/16 05:22:18;;;;;;;18.17;10.38;;;;;;;20.74;63.10;100683.39;1715162;82;21264;-56
2021/08/16 05:25:24;;;;;;;19.20;10.90;;;;;;;20.90;62.65;100683.31;1699110;82;21232;-56
2021/08/16 05:28:29;;;;;;;17.62;10.08;;;;;;;21.06;62.47;100685.47;1713913;82;21605;-56
2021/08/16 05:31:35;;;;;;;20.70;10.60;;;;;;;21.20;62.15;100680.00;1767538;80;21374;-56
2021/08/16 05:34:42;;;;;;;19.20;9.65;;;;;;;21.35;61.89;100681.25;1732008;82;21205;-58
2021/08/16 05:37:55;;;;;;;16.20;9.70;;;;;;;21.50;61.39;100689.16;1747402;80;21338;-58
2021/08/16 05:41:02;;;;;;;15.20;9.38;;;;;;;21.67;61.14;100697.98;1744634;82;21223;-57
2021/08/16 05:44:09;;;;;;;14.18;7.90;;;;;;;21.83;60.20;100693.12;1747384;80;21260;-56
2021/08/16 05:47:16;;;;;;;12.50;7.78;;;;;;;22.00;59.19;100685.72;1776174;80;21189;-57
2021/08/16 05:50:23;;;;;;;14.80;8.05;;;;;;;22.14;58.48;100684.37;1777364;80;21429;-59
2021/08/16 05:53:28;;;;;;;16.70;8.58;;;;;;;22.31;58.40;100696.19;1740679;82;21744;-57
2021/08/16 05:56:35;;;;;;;15.25;8.68;;;;;;;22.41;58.32;100687.48;1777650;80;21257;-58
2021/08/16 05:59:43;;;;;;;14.00;8.35;;;;;;;22.54;57.97;100684.47;1740243;82;22088;-59
2021/08/16 06:02:50;;;;;;;15.13;8.55;;;;;;;22.67;57.76;100688.92;1777584;80;21796;-58
2021/08/16 06:05:57;;;;;;;18.37;8.65;;;;;;;22.78;57.84;100679.66;1741958;82;21740;-56
2021/08/16 06:09:03;;;;;;;17.30;8.00;;;;;;;22.90;57.51;100684.64;1706465;83;21206;-57
2021/08/16 06:12:12;;;;;;;14.80;8.43;;;;;;;23.01;57.32;100680.95;1773145;81;21173;-57
2021/08/16 06:15:22;;;;;;;13.48;8.50;;;;;;;23.12;56.87;100683.70;1770459;79;21209;-57
2021/08/16 06:18:32;;;;;;;15.95;9.23;;;;;;;23.24;56.73;100692.03;1752887;81;21276;-57
2021/08/16 06:21:42;;;;;;;16.52;8.25;;;;;;;23.37;56.49;100691.75;1760030;80;21355;-54
2021/08/16 06:24:49;;;;;;;15.43;6.78;;;;;;;23.49;56.48;100688.33;1752630;81;21738;-55
2021/08/16 06:28:02;;;;;;;16.57;6.80;;;;;;;23.64;54.97;100694.20;1762554;81;21214;-57
2021/08/16 06:31:10;;;;;;;15.45;7.28;;;;;;;23.79;53.91;100691.64;1768804;81;21413;-56
2021/08/16 06:34:17;;;;;;;12.45;6.83;;;;;;;23.90;53.10;100685.11;1759976;81;21888;-56
2021/08/16 06:37:25;;;;;;;12.23;6.70;;;;;;;24.02;53.00;100681.72;1737619;82;21577;-55
2021/08/16 06:40:30;;;;;;;12.05;6.55;;;;;;;24.12;52.53;100684.64;1735646;82;21201;-55
2021/08/16 06:43:38;;;;;;;15.23;6.15;;;;;;;24.25;51.79;100688.48;1663390;84;21215;-55
2021/08/16 06:46:43;;;;;;;10.85;5.62;;;;;;;24.37;51.75;100690.60;1692182;83;21230;-56
2021/08/16 06:49:51;;;;;;;10.25;5.37;;;;;;;24.50;50.98;100683.78;1729097;82;21594;-56
2021/08/16 06:52:57;;;;;;;9.13;5.20;;;;;;;24.63;50.23;100684.26;1768333;79;21177;-56
2021/08/16 06:56:02;;;;;;;11.85;5.25;;;;;;;24.73;49.92;100674.63;1768558;81;21181;-55
2021/08/16 06:59:08;;;;;;;15.83;5.62;;;;;;;24.82;49.14;100681.45;1756841;81;21578;-56
2021/08/16 07:02:15;;;;;;;10.28;4.80;;;;;;;24.94;48.90;100678.52;1720845;82;21721;-56
2021/08/16 07:05:21;;;;;;;16.27;5.30;;;;;;;25.05;48.19;100678.34;1739085;82;21876;-57
2021/08/16 07:08:29;;;;;;;7.72;4.45;;;;;;;25.17;47.75;100671.20;1768757;79;21254;-56
2021/08/16 07:11:35;;;;;;;12.15;5.70;;;;;;;25.31;46.71;100674.44;1766325;81;21194;-55
2021/08/16 07:14:42;;;;;;;7.72;5.08;;;;;;;25.41;46.63;100673.15;1766320;80;21217;-56
2021/08/16 07:17:47;;;;;;;9.28;5.37;;;;;;;25.52;45.98;100674.39;1766559;80;21289;-56
2021/08/16 07:20:54;;;;;;;11.93;4.87;;;;;;;25.62;46.06;100673.09;1769968;80;21196;-56
2021/08/16 07:24:04;;;;;;;10.48;5.05;;;;;;;25.73;45.95;100675.41;1757046;80;21225;-57
2021/08/16 07:27:12;;;;;;;11.93;4.95;;;;;;;25.83;45.46;100675.50;1770819;78;21205;-56
2021/08/16 07:30:20;;;;;;;10.88;4.58;;;;;;;25.95;45.36;100674.73;1754505;81;21403;-55
2021/08/16 07:33:28;;;;;;;12.00;5.08;;;;;;;26.03;44.32;100665.30;1759009;79;21185;-55
2021/08/16 07:36:34;;;;;;;9.48;4.40;;;;;;;26.11;43.54;100662.54;1794204;79;21805;-54
2021/08/16 07:39:42;;;;;;;12.05;4.58;;;;;;;26.19;43.23;100659.23;1803494;78;21204;-55
2021/08/16 07:42:48;;;;;;;12.33;5.10;;;;;;;26.30;42.60;100663.78;1756098;80;21204;-58
2021/08/16 07:45:56;;;;;;;8.23;4.28;;;;;;;26.38;42.50;100664.13;1768033;80;21219;-56
2021/08/16 07:49:02;;;;;;;9.83;4.22;;;;;;;26.48;42.42;100666.14;1753084;80;21717;-55
2021/08/16 07:52:09;;;;;;;8.60;3.98;;;;;;;26.54;41.15;100661.38;1781679;79;21202;-56
2021/08/16 07:55:17;;;;;;;14.98;4.53;;;;;;;26.59;40.87;100655.80;1753932;81;21223;-57
2021/08/16 07:58:22;;;;;;;8.33;4.20;;;;;;;26.64;40.33;100658.08;1799251;79;21355;-56
2021/08/16 08:01:28;;;;;;;8.48;4.78;;;;;;;26.72;39.69;100654.74;1797934;79;21363;-56
2021/08/16 08:04:35;;;;;;;9.13;4.00;;;;;;;26.79;39.73;100655.34;1798899;78;21255;-57
2021/08/16 08:07:41;;;;;;;9.18;4.25;;;;;;;26.89;40.33;100653.98;1759834;79;21162;-58
2021/08/16 08:10:46;;;;;;;6.00;3.75;;;;;;;26.99;40.20;100651.19;1735422;82;21239;-56
2021/08/16 08:13:52;;;;;;;6.97;3.55;;;;;;;27.07;39.25;100652.59;1731158;82;21755;-56
2021/08/16 08:16:58;;;;;;;9.73;4.17;;;;;;;27.14;39.30;100647.56;1762883;80;21343;-56
2021/08/16 08:20:05;;;;;;;7.47;4.05;;;;;;;27.21;39.50;100650.39;1764477;81;21208;-56
2021/08/16 08:23:11;;;;;;;8.18;3.70;;;;;;;27.26;38.59;100640.59;1762541;79;21430;-56
2021/08/16 08:26:17;;;;;;;7.00;3.67;;;;;;;27.30;38.91;100640.34;1758972;79;21856;-54
2021/08/16 08:29:23;;;;;;;5.00;3.95;;;;;;;27.37;38.70;100638.66;1771087;79;21227;-53
2021/08/16 08:32:29;;;;;;;5.20;3.70;;;;;;;27.43;38.29;100643.98;1810721;79;21459;-53
2021/08/16 08:35:37;;;;;;;5.12;3.85;;;;;;;27.49;38.32;100635.85;1798535;79;21192;-56
2021/08/16 08:38:43;;;;;;;7.12;3.98;;;;;;;27.56;38.54;100634.14;1767841;79;21421;-54
2021/08/16 08:41:48;;;;;;;7.17;3.85;;;;;;;27.61;38.29;100636.41;1770690;79;21196;-53
2021/08/16 08:44:54;;;;;;;6.85;3.80;;;;;;;27.66;37.27;100632.19;1752170;80;21801;-55
2021/08/16 08:48:00;;;;;;;7.08;3.62;;;;;;;27.73;36.62;100633.31;1768260;80;21750;-55
2021/08/16 08:51:07;;;;;;;6.85;3.98;;;;;;;27.81;36.28;100633.56;1743262;81;21351;-55
2021/08/16 08:54:16;;;;;;;6.90;3.55;;;;;;;27.87;36.12;100634.42;1708536;83;21236;-54
2021/08/16 08:57:30;;;;;;;5.97;3.50;;;;;;;27.96;35.65;100631.89;1761518;80;21304;-54
2021/08/16 09:00:33;;;;;;;7.47;3.62;;;;;;;28.03;36.16;100634.72;1735936;82;21772;-55
2021/08/16 09:03:39;;;;;;;7.22;4.42;;;;;;;28.16;36.73;100638.91;1798576;78;21757;-54
2021/08/16 09:06:47;;;;;;;8.43;4.05;;;;;;;28.25;36.64;100632.96;1798315;79;21770;-55
2021/08/16 09:10:02;;;;;;;7.28;3.75;;;;;;;28.33;37.02;100639.42;1798870;78;21686;-55
2021/08/16 09:13:08;;;;;;;8.53;3.92;;;;;;;28.39;36.85;100629.27;1767583;80;21398;-57
2021/08/16 09:16:17;;;;;;;5.92;4.12;;;;;;;28.43;35.91;100621.91;1757205;79;21375;-54
2021/08/16 09:19:30;;;;;;;5.65;4.00;;;;;;;28.49;36.26;100623.64;1748782;81;21777;-55
2021/08/16 09:22:37;;;;;;;11.55;4.25;;;;;;;28.55;36.45;100615.44;1754278;80;21337;-53
2021/08/16 09:25:45;;;;;;;6.30;3.98;;;;;;;28.62;36.26;100617.95;1744026;81;21810;-56
2021/08/16 09:28:52;;;;;;;8.23;4.10;;;;;;;28.68;35.98;100609.18;1727589;81;21266;-54
2021/08/16 09:32:08;;;;;;;6.62;3.80;;;;;;;28.76;36.08;100605.76;1767738;79;21235;-54
2021/08/16 09:35:20;;;;;;;6.83;4.67;;;;;;;28.85;35.69;100598.92;1789080;79;21169;-54
2021/08/16 09:38:44;;;;;;;10.03;4.40;;;;;;;28.96;35.67;100590.68;1761776;79;21346;-55
2021/08/16 09:41:49;;;;;;;5.40;3.65;;;;;;;29.03;34.41;100589.21;1793455;79;21245;-56
2021/08/16 09:44:57;;;;;;;7.05;3.60;;;;;;;29.10;33.64;100588.37;1796951;78;21742;-55
2021/08/16 09:48:02;;;;;;;4.42;3.45;;;;;;;29.15;33.64;100579.02;1775682;79;21185;-55
2021/08/16 09:51:08;;;;;;;6.33;3.98;;;;;;;29.21;33.40;100580.11;1798192;79;21255;-56
2021/08/16 09:54:17;;;;;;;7.78;3.98;;;;;;;29.27;33.07;100580.92;1798040;78;21267;-57
2021/08/16 09:57:31;;;;;;;5.83;3.75;;;;;;;29.33;33.02;100578.89;1767394;81;21379;-56
2021/08/16 10:00:45;;;;;;;5.70;3.45;;;;;;;29.37;32.33;100575.77;1744944;80;21206;-57
2021/08/16 10:03:59;;;;;;;7.78;3.50;;;;;;;29.44;32.76;100574.84;1768269;79;21767;-57
2021/08/16 10:07:06;;;;;;;5.42;3.17;;;;;;;29.52;32.43;100575.06;1783672;79;21756;-54
2021/08/16 10:10:17;;;;;;;4.80;3.40;;;;;;;29.59;32.28;100578.37;1783086;79;21197;-57
2021/08/16 10:13:24;;;;;;;10.88;3.90;;;;;;;29.65;32.16;100571.59;1788426;78;21237;-56
2021/08/16 10:16:38;;;;;;;6.40;3.75;;;;;;;29.75;32.50;100563.59;1776342;80;21246;-56
2021/08/16 10:19:49;;;;;;;6.78;3.55;;;;;;;29.83;32.80;100565.18;1798711;78;21157;-56
2021/08/16 10:22:56;;;;;;;6.05;3.42;;;;;;;29.92;32.82;100567.62;1798596;79;21220;-58
2021/08/16 10:26:03;;;;;;;4.50;3.35;;;;;;;29.99;32.62;100572.35;1765089;79;21215;-57
2021/08/16 10:29:14;;;;;;;7.40;3.35;;;;;;;30.07;32.42;100569.44;1776478;78;21204;-55
2021/08/16 10:32:28;;;;;;;6.83;3.70;;;;;;;30.14;32.03;100567.11;1764836;80;21372;-57
2021/08/16 10:35:32;;;;;;;8.95;3.80;;;;;;;30.17;31.08;100561.71;1766731;81;21345;-51
2021/08/16 10:38:39;;;;;;;5.25;3.87;;;;;;;30.16;30.48;100558.59;1765983;81;21950;-52
2021/08/16 10:41:46;;;;;;;5.17;3.65;;;;;;;30.16;30.48;100558.59;1770303;81;21344;-50
2021/08/16 10:45:00;;;;;;;6.75;3.67;;;;;;;30.17;30.47;100550.41;1746218;81;21260;-52
2021/08/16 10:48:13;;;;;;;9.45;4.42;;;;;;;30.17;30.47;100550.41;1750735;79;22011;-50
2021/08/16 10:51:18;;;;;;;;;;;;;;;30.26;30.57;100554.28;1777092;79;21336;-51
2021/08/16 10:54:33;;;;;;;6.83;3.77;;;;;;;30.37;30.48;100562.89;1788234;79;20217;-54
2021/08/16 10:57:40;;;;;;;5.47;3.60;;;;;;;30.49;30.40;100546.33;1752388;82;21560;-54
2021/08/16 11:00:50;;;;;;;6.55;3.15;;;;;;;30.49;30.40;100546.33;1724968;82;21216;-52
2021/08/16 11:04:05;;;;;;;5.30;3.77;;;;;;;30.62;29.99;100544.74;1730185;82;21721;-51
2021/08/16 11:07:13;;;;;;;5.75;3.20;;;;;;;30.76;29.80;100541.48;1730937;82;21303;-51
2021/08/16 11:10:21;;;;;;;5.62;3.47;;;;;;;30.76;29.80;100541.48;1727838;81;21630;-54
2021/08/16 11:13:29;;;;;;;4.97;3.40;;;;;;;31.03;29.38;100535.14;1730731;81;21197;-52
2021/08/16 11:16:34;;;;;;;8.85;3.67;;;;;;;31.14;29.45;100526.75;1740440;80;21185;-52
2021/08/16 11:19:57;;;;;;;6.35;3.52;;;;;;;31.14;29.45;100526.75;1733799;80;21943;-53
2021/08/16 11:23:02;;;;;;;5.55;3.85;;;;;;;31.26;29.18;100523.70;1762190;79;21452;-51
2021/08/16 11:26:10;;;;;;;8.00;3.92;;;;;;;31.45;29.19;100537.84;1727178;82;21205;-52
2021/08/16 11:29:22;;;;;;;6.87;3.50;;;;;;;31.52;28.39;100528.38;1775850;79;21421;-53
2021/08/16 11:32:29;;;;;;;6.47;3.33;;;;;;;31.63;29.21;100522.80;1772135;78;21331;-52
2021/08/16 11:35:37;;;;;;;6.83;3.40;;;;;;;31.77;29.47;100525.08;1781089;80;21193;-53
2021/08/16 11:38:41;;;;;;;10.82;3.45;;;;;;;31.90;28.77;100522.28;1799115;78;21228;-53
2021/08/16 11:41:47;;;;;;;6.37;3.10;;;;;;;32.02;28.54;100516.11;1795206;79;21338;-53
2021/08/16 11:45:12;;;;;;;8.75;3.62;;;;;;;32.14;29.07;100515.59;1766505;80;21392;-53
2021/08/16 11:48:14;;;;;;;7.65;3.72;;;;;;;32.24;28.44;100512.55;1732744;81;21420;-53
2021/08/16 11:51:21;;;;;;;7.10;3.58;;;;;;;32.32;28.09;100509.80;1802093;79;21370;-53
2021/08/16 11:54:39;;;;;;;8.65;3.50;;;;;;;32.39;27.72;100516.50;1802392;78;21311;-52
2021/08/16 11:57:44;;;;;;;6.47;3.22;;;;;;;32.39;27.52;100507.42;1800745;79;21392;-53
2021/08/16 12:00:51;;;;;;;5.45;3.20;;;;;;;32.37;27.94;100497.55;1799817;79;21209;-53
2021/08/16 12:03:59;;;;;;;8.95;3.27;;;;;;;32.38;27.83;100496.41;1784113;79;21898;-53
2021/08/16 12:07:05;;;;;;;7.12;3.40;;;;;;;32.40;28.15;100494.92;1811202;78;21184;-53
2021/08/16 12:10:24;;;;;;;9.13;3.08;;;;;;;32.45;27.61;100500.48;1779595;79;21370;-52
2021/08/16 12:13:31;;;;;;;5.30;3.25;;;;;;;32.45;27.51;100491.97;1810553;79;21223;-55
2021/08/16 12:16:44;;;;;;;4.17;3.08;;;;;;;32.46;26.87;100490.80;1782807;79;21327;-53
2021/08/16 12:19:52;;;;;;;4.08;2.98;;;;;;;32.42;26.68;100496.86;1754636;80;21206;-53
2021/08/16 12:23:04;;;;;;;5.10;2.73;;;;;;;32.29;26.70;100489.18;1740433;81;21192;-52
2021/08/16 12:26:12;;;;;;;5.72;3.77;;;;;;;32.15;26.73;100492.61;1737614;82;21740;-51
2021/08/16 12:29:29;;;;;;;5.20;3.40;;;;;;;32.03;27.21;100488.88;1790933;78;21351;-52
2021/08/16 12:32:37;;;;;;;4.40;3.10;;;;;;;31.94;26.98;100485.67;1797916;78;21403;-52
2021/08/16 12:35:44;;;;;;;8.98;3.40;;;;;;;31.82;27.39;100491.00;1792980;79;21176;-51
2021/08/16 12:38:50;;;;;;;6.50;3.40;;;;;;;31.74;27.22;100485.49;1800296;79;21181;-50
2021/08/16 12:41:59;;;;;;;5.60;3.52;;;;;;;31.68;27.24;100487.31;1801267;79;21824;-53
2021/08/16 12:45:19;;;;;;;7.87;3.27;;;;;;;31.58;27.46;100491.18;1784207;79;21200;-52
2021/08/16 12:48:26;;;;;;;5.05;3.60;;;;;;;31.47;27.55;100485.45;1768494;80;21829;-51
2021/08/16 12:51:32;;;;;;;5.25;3.20;;;;;;;31.42;27.60;100487.52;1768132;80;21904;-49
2021/08/16 12:54:42;;;;;;;5.80;3.15;;;;;;;31.39;27.39;100474.84;1767466;80;21887;-51
2021/08/16 12:57:50;;;;;;;9.28;3.15;;;;;;;31.40;27.67;100477.92;1766352;81;21185;-52
2021/08/16 13:00:58;;;;;;;4.95;3.50;;;;;;;31.40;27.98;100477.07;1745883;81;21197;-52
2021/08/16 13:04:03;;;;;;;6.15;3.35;;;;;;;31.40;27.77;100477.07;1765520;81;21390;-51
2021/08/16 13:07:12;;;;;;;5.95;2.80;;;;;;;31.40;27.88;100479.34;1763062;80;21857;-53
2021/08/16 13:10:18;;;;;;;4.42;3.42;;;;;;;31.41;27.55;100473.11;1732395;83;21252;-52
2021/08/16 13:13:27;;;;;;;5.85;3.33;;;;;;;31.42;27.38;100480.44;1757090;80;21359;-53
2021/08/16 13:16:33;;;;;;;7.78;3.60;;;;;;;31.40;27.39;100481.31;1764376;80;21174;-52
2021/08/16 13:19:40;;;;;;;5.47;3.33;;;;;;;31.40;27.69;100477.92;1777423;79;21626;-52
2021/08/16 13:22:47;;;;;;;6.00;3.20;;;;;;;31.42;28.06;100476.20;1776286;79;21280;-53
2021/08/16 13:25:54;;;;;;;9.63;3.50;;;;;;;31.44;28.24;100470.50;1766636;81;21711;-53
2021/08/16 13:28:59;;;;;;;6.92;4.22;;;;;;;31.45;27.98;100476.42;1745110;80;21212;-53
2021/08/16 13:32:06;;;;;;;4.87;3.17;;;;;;;31.45;28.01;100473.59;1753717;81;21299;-53
2021/08/16 13:35:14;;;;;;;8.05;3.47;;;;;;;31.45;28.05;100470.76;1772770;79;21541;-52
2021/08/16 13:38:19;;;;;;;6.83;3.08;;;;;;;31.45;28.17;100470.76;1771489;79;21848;-52
2021/08/16 13:41:25;;;;;;;8.00;3.60;;;;;;;31.47;28.08;100470.44;1778052;80;21351;-53
2021/08/16 13:44:32;;;;;;;5.20;3.00;;;;;;;31.51;28.02;100464.41;1769467;80;21411;-53
2021/08/16 13:47:40;;;;;;;6.72;3.05;;;;;;;31.54;28.30;100460.38;1729713;81;21240;-52
2021/08/16 13:50:46;;;;;;;7.30;3.02;;;;;;;31.58;27.96;100456.36;1736453;82;21244;-53
2021/08/16 13:53:52;;;;;;;6.40;3.17;;;;;;;31.60;27.96;100447.80;1725959;82;21579;-53
2021/08/16 13:56:59;;;;;;;5.40;2.92;;;;;;;31.62;27.68;100451.77;1735843;82;21750;-52
2021/08/16 14:00:07;;;;;;;5.72;3.20;;;;;;;31.63;27.59;100450.61;1750177;80;21567;-53
2021/08/16 14:03:12;;;;;;;5.92;3.10;;;;;;;31.63;27.37;100441.55;1740619;81;21228;-54
2021/08/16 14:06:18;;;;;;;5.35;3.40;;;;;;;31.68;27.35;100438.59;1788988;79;21351;-53
2021/08/16 14:09:24;;;;;;;6.37;3.58;;;;;;;31.81;26.66;100435.48;1798342;79;21830;-52
2021/08/16 14:12:30;;;;;;;6.15;3.52;;;;;;;31.82;26.33;100434.36;1798115;79;21193;-53
2021/08/16 14:15:35;;;;;;;6.08;3.60;;;;;;;31.81;26.58;100435.48;1768778;80;21189;-52
2021/08/16 14:18:42;;;;;;;6.95;3.08;;;;;;;31.79;26.69;100429.33;1770998;79;21758;-53
2021/08/16 14:21:48;;;;;;;10.32;3.22;;;;;;;31.83;26.74;100424.70;1783613;79;21335;-53
2021/08/16 14:24:58;;;;;;;4.58;3.17;;;;;;;31.85;26.62;100426.11;1768310;79;21202;-52